createdAt,value
2023-05-24T00:00:33.111Z,1.30
2023-05-24T00:03:00.181Z,1.02
2023-05-24T00:05:27.003Z,0.90
2023-05-24T00:07:53.742Z,1.27
2023-05-24T00:10:20.779Z,1.20
2023-05-24T00:12:47.565Z,1.42
2023-05-24T00:15:14.384Z,1.02
2023-05-24T00:17:42.678Z,1.38
2023-05-24T00:20:14.407Z,1.15
2023-05-24T00:22:41.989Z,0.85
2023-05-24T00:25:09.570Z,1.50
2023-05-24T00:27:37.412Z,0.95
2023-05-24T00:30:05.648Z,1.13
2023-05-24T00:32:32.505Z,1.02
2023-05-24T00:34:59.605Z,1.50
2023-05-24T00:37:26.478Z,1.00
2023-05-24T00:39:53.248Z,0.90
2023-05-24T00:42:20.044Z,1.10
2023-05-24T00:44:46.806Z,1.10
2023-05-24T00:47:13.920Z,0.98
2023-05-24T00:49:40.968Z,0.85
2023-05-24T00:52:09.011Z,0.70
2023-05-24T00:54:36.005Z,0.85
2023-05-24T00:57:02.879Z,0.82
2023-05-24T00:59:30.028Z,1.00
2023-05-24T01:01:56.873Z,1.00
2023-05-24T01:04:24.049Z,1.30
2023-05-24T01:07:18.965Z,0.80
2023-05-24T01:10:15.199Z,0.80
2023-05-24T01:13:10.964Z,0.75
2023-05-24T01:16:12.789Z,0.90
2023-05-24T01:18:44.342Z,1.00
2023-05-24T01:21:34.644Z,0.80
2023-05-24T01:24:32.881Z,1.17
2023-05-24T01:27:11.978Z,0.95
2023-05-24T01:29:39.621Z,0.73
2023-05-24T01:32:07.152Z,1.10
2023-05-24T01:34:33.963Z,1.17
2023-05-24T01:37:01.059Z,1.42
2023-05-24T01:39:30.163Z,1.05
2023-05-24T01:42:06.432Z,1.45
2023-05-24T01:44:43.403Z,1.25
2023-05-24T01:47:36.387Z,1.17
2023-05-24T01:50:14.622Z,1.02
2023-05-24T01:52:45.547Z,1.00
2023-05-24T01:55:17.337Z,0.73
2023-05-24T01:57:45.982Z,1.10
2023-05-24T02:00:18.436Z,1.27
2023-05-24T02:02:45.752Z,1.02
2023-05-24T02:05:12.717Z,1.15
2023-05-24T02:07:41.393Z,1.35
2023-05-24T02:10:08.572Z,1.10
2023-05-24T02:12:35.328Z,1.27
2023-05-24T02:15:02.145Z,1.23
2023-05-24T02:17:28.891Z,0.90
2023-05-24T02:19:55.952Z,1.10
2023-05-24T02:22:23.272Z,1.13
2023-05-24T02:24:50.065Z,1.83
2023-05-24T02:27:16.898Z,1.38
2023-05-24T02:29:43.738Z,1.08
2023-05-24T02:32:10.593Z,0.95
2023-05-24T02:34:37.370Z,0.85
2023-05-24T02:37:04.838Z,1.25
2023-05-24T02:39:31.774Z,1.23
2023-05-24T02:41:59.098Z,1.25
2023-05-24T02:44:25.840Z,1.30
2023-05-24T02:46:52.592Z,1.20
2023-05-24T02:49:19.434Z,1.05
2023-05-24T02:51:46.643Z,1.00
2023-05-24T02:54:13.360Z,1.27
2023-05-24T02:56:40.598Z,1.05
2023-05-24T02:59:07.485Z,0.98
2023-05-24T03:01:34.563Z,1.13
2023-05-24T03:04:01.445Z,1.42
2023-05-24T03:06:28.245Z,1.05
2023-05-24T03:08:55.092Z,1.50
2023-05-24T03:11:22.551Z,1.20
2023-05-24T03:13:49.597Z,1.45
2023-05-24T03:16:17.093Z,1.02
2023-05-24T03:18:44.249Z,1.33
2023-05-24T03:21:11.248Z,1.67
2023-05-24T03:23:38.171Z,1.30
2023-05-24T03:26:04.940Z,1.20
2023-05-24T03:28:31.893Z,1.10
2023-05-24T03:30:58.773Z,1.35
2023-05-24T03:33:25.553Z,1.70
2023-05-24T03:35:52.306Z,1.17
2023-05-24T03:38:19.072Z,1.00
2023-05-24T03:40:45.806Z,1.60
2023-05-24T03:43:12.685Z,1.30
2023-05-24T03:45:40.219Z,1.27
2023-05-24T03:48:07.231Z,1.52
2023-05-24T03:50:34.236Z,1.40
2023-05-24T03:53:01.088Z,1.92
2023-05-24T03:55:27.849Z,0.98
2023-05-24T03:57:54.572Z,1.17
2023-05-24T04:00:21.790Z,1.45
2023-05-24T04:02:48.722Z,0.98
2023-05-24T04:05:15.562Z,1.00
2023-05-24T04:07:43.880Z,1.17
2023-05-24T04:10:10.881Z,1.17
2023-05-24T04:12:37.796Z,1.42
2023-05-24T04:15:04.989Z,1.50
2023-05-24T04:17:35.024Z,1.23
2023-05-24T04:20:02.232Z,1.48
2023-05-24T04:22:30.406Z,1.55
2023-05-24T04:24:57.147Z,1.58
2023-05-24T04:27:26.162Z,1.45
2023-05-24T04:29:53.440Z,1.10
2023-05-24T04:32:20.196Z,1.20
2023-05-24T04:34:47.138Z,1.38
2023-05-24T04:37:13.995Z,1.00
2023-05-24T04:39:41.650Z,1.27
2023-05-24T04:42:08.456Z,1.77
2023-05-24T04:44:35.292Z,1.00
2023-05-24T04:47:03.948Z,0.73
2023-05-24T04:49:33.862Z,0.80
2023-05-24T04:52:00.724Z,1.10
2023-05-24T04:54:27.500Z,1.38
2023-05-24T04:56:54.228Z,1.73
2023-05-24T04:59:21.014Z,2.00
2023-05-24T05:01:48.363Z,1.85
2023-05-24T05:04:15.229Z,1.30
2023-05-24T05:06:44.763Z,1.30
2023-05-24T05:09:13.916Z,1.23
2023-05-24T05:11:40.926Z,1.30
2023-05-24T05:14:10.770Z,1.85
2023-05-24T05:16:38.703Z,1.60
2023-05-24T05:19:06.084Z,2.25
2023-05-24T05:21:33.618Z,1.73
2023-05-24T05:24:04.025Z,1.52
2023-05-24T05:26:31.129Z,1.20
2023-05-24T05:28:58.276Z,2.00
2023-05-24T05:31:25.363Z,1.73
2023-05-24T05:33:52.260Z,1.35
2023-05-24T05:36:19.006Z,2.10
2023-05-24T05:38:45.762Z,1.40
2023-05-24T05:41:12.513Z,1.25
2023-05-24T05:43:39.282Z,1.90
2023-05-24T05:46:06.537Z,1.80
2023-05-24T05:48:33.486Z,2.10
2023-05-24T05:51:00.284Z,1.73
2023-05-24T05:53:27.097Z,1.65
2023-05-24T05:55:53.863Z,2.47
2023-05-24T05:58:20.590Z,2.13
2023-05-24T06:00:47.260Z,1.75
2023-05-24T06:03:14.118Z,2.30
2023-05-24T06:05:41.982Z,1.95
2023-05-24T06:08:08.750Z,2.65
2023-05-24T06:10:35.691Z,1.67
2023-05-24T06:13:03.526Z,4.80
2023-05-24T06:15:30.667Z,3.10
2023-05-24T06:18:05.358Z,6.47
2023-05-24T06:20:32.117Z,20.65
2023-05-24T06:22:59.036Z,4.82
2023-05-24T06:25:27.506Z,8.80
2023-05-24T06:27:54.173Z,7.65
2023-05-24T06:30:21.028Z,3.38
2023-05-24T06:32:47.871Z,2.03
2023-05-24T06:35:14.702Z,3.97
2023-05-24T06:37:41.438Z,2.55
2023-05-24T06:40:11.632Z,2.95
2023-05-24T06:42:39.669Z,3.45
2023-05-24T06:45:08.472Z,6.68
2023-05-24T06:47:36.188Z,3.42
2023-05-24T06:50:06.623Z,2.17
2023-05-24T06:52:33.930Z,1.88
2023-05-24T06:55:01.675Z,1.98
2023-05-24T06:57:28.841Z,1.98
2023-05-24T06:59:56.076Z,1.95
2023-05-24T07:02:27.420Z,2.42
2023-05-24T07:04:54.846Z,1.98
2023-05-24T07:07:24.628Z,2.70
2023-05-24T07:10:00.136Z,2.53
2023-05-24T07:12:27.210Z,2.63
2023-05-24T07:20:10.657Z,1.48
2023-05-24T07:22:45.867Z,2.50
2023-05-24T07:25:13.274Z,1.80
2023-05-24T07:27:40.082Z,1.92
2023-05-24T07:30:16.391Z,1.98
2023-05-24T07:32:51.371Z,1.73
2023-05-24T07:35:18.335Z,1.23
2023-05-24T07:37:45.134Z,1.55
2023-05-24T07:40:12.477Z,1.77
2023-05-24T07:42:49.900Z,1.67
2023-05-24T07:45:20.491Z,1.48
2023-05-24T07:47:47.731Z,1.17
2023-05-24T07:50:15.079Z,1.40
2023-05-24T07:52:41.984Z,0.98
2023-05-24T07:55:09.082Z,1.30
2023-05-24T07:57:35.959Z,1.30
2023-05-24T08:00:10.350Z,1.40
2023-05-24T08:02:38.098Z,1.40
2023-05-24T08:05:23.738Z,1.40
2023-05-24T08:07:54.747Z,1.55
2023-05-24T08:10:22.904Z,1.90
2023-05-24T08:12:56.795Z,1.60
2023-05-24T08:15:35.905Z,1.15
2023-05-24T08:18:12.129Z,1.20
2023-05-24T08:20:49.024Z,1.20
2023-05-24T08:23:16.346Z,1.00
2023-05-24T08:25:43.497Z,1.17
2023-05-24T08:28:18.166Z,1.10
2023-05-24T08:30:46.269Z,1.50
2023-05-24T08:33:17.370Z,1.00
2023-05-24T08:36:02.061Z,1.67
2023-05-24T08:38:40.165Z,1.02
2023-05-24T08:41:10.740Z,0.88
2023-05-24T08:43:53.347Z,0.98
2023-05-24T08:46:21.360Z,0.93
2023-05-24T08:48:48.701Z,0.80
2023-05-24T08:51:16.371Z,0.98
2023-05-24T08:53:56.686Z,1.10
2023-05-24T08:56:31.003Z,0.77
2023-05-24T08:58:58.918Z,0.80
2023-05-24T09:01:30.784Z,0.80
2023-05-24T09:04:03.273Z,1.45
2023-05-24T09:06:34.425Z,1.15
2023-05-24T09:09:04.598Z,0.85
2023-05-24T09:11:35.208Z,1.17
2023-05-24T09:14:04.138Z,0.95
2023-05-24T09:19:02.730Z,1.10
2023-05-24T09:21:41.221Z,1.40
2023-05-24T09:24:20.879Z,1.38
2023-05-24T09:26:58.098Z,1.70
2023-05-24T09:29:28.515Z,1.60
2023-05-24T09:32:03.384Z,1.30
2023-05-24T09:34:41.996Z,1.00
2023-05-24T09:37:32.241Z,1.70
2023-05-24T09:40:00.965Z,1.50
2023-05-24T09:42:29.569Z,1.70
2023-05-24T09:45:03.182Z,1.80
2023-05-24T09:47:36.673Z,1.75
2023-05-24T09:50:10.295Z,1.73
2023-05-24T09:52:41.686Z,1.75
2023-05-24T09:55:22.133Z,1.97
2023-05-24T09:58:06.514Z,1.60
2023-05-24T10:00:38.471Z,1.55
2023-05-24T10:05:59.567Z,1.55
2023-05-24T10:08:37.494Z,1.50
2023-05-24T10:11:08.723Z,1.60
2023-05-24T10:13:40.565Z,1.60
2023-05-24T10:16:07.924Z,1.52
2023-05-24T10:18:36.040Z,1.42
2023-05-24T10:21:10.601Z,1.80
2023-05-24T10:23:45.781Z,1.70
2023-05-24T10:26:24.670Z,1.65
2023-05-24T10:29:11.632Z,1.80
2023-05-24T10:31:42.874Z,1.58
2023-05-24T10:34:11.296Z,2.03
2023-05-24T10:36:45.862Z,1.40
2023-05-24T10:39:24.026Z,1.60
2023-05-24T10:42:06.135Z,1.70
2023-05-24T10:44:47.215Z,1.50
2023-05-24T10:47:31.705Z,1.50
2023-05-24T10:50:28.009Z,1.48
2023-05-24T10:53:19.750Z,1.70
2023-05-24T10:56:04.595Z,1.60
2023-05-24T10:58:47.587Z,1.42
2023-05-24T11:01:37.381Z,1.52
2023-05-24T11:04:17.453Z,1.60
2023-05-24T11:07:12.065Z,1.70
2023-05-24T11:09:53.121Z,1.50
2023-05-24T11:12:22.838Z,1.58
2023-05-24T11:14:52.552Z,1.63
2023-05-24T11:17:22.417Z,1.65
2023-05-24T11:19:54.891Z,1.75
2023-05-24T11:22:23.682Z,1.70
2023-05-24T11:24:52.412Z,1.58
2023-05-24T11:27:19.280Z,1.42
2023-05-24T11:29:48.649Z,1.77
2023-05-24T11:32:19.993Z,1.58
2023-05-24T11:34:47.945Z,1.83
2023-05-24T11:37:17.583Z,1.60
2023-05-24T11:39:51.138Z,1.50
2023-05-24T11:42:18.010Z,1.67
2023-05-24T11:44:44.993Z,1.80
2023-05-24T11:47:13.610Z,1.60
2023-05-24T11:49:41.148Z,1.80
2023-05-24T11:52:08.633Z,1.60
2023-05-24T11:54:37.429Z,1.80
2023-05-24T11:57:05.807Z,1.75
2023-05-24T11:59:32.744Z,1.58
2023-05-24T12:02:06.723Z,1.98
2023-05-24T12:04:34.628Z,1.83
2023-05-24T12:07:02.312Z,2.17
2023-05-24T12:09:29.579Z,1.80
2023-05-24T12:11:58.535Z,1.88
2023-05-24T12:14:31.291Z,1.95
2023-05-24T12:16:58.991Z,2.10
2023-05-24T12:19:33.757Z,2.10
2023-05-24T12:22:05.181Z,2.28
2023-05-24T12:24:32.933Z,1.88
2023-05-24T12:27:08.359Z,2.20
2023-05-24T12:29:37.674Z,2.00
2023-05-24T12:32:04.803Z,2.20
2023-05-24T12:34:32.494Z,2.15
2023-05-24T12:37:00.165Z,1.85
2023-05-24T12:39:35.535Z,1.90
2023-05-24T12:42:04.513Z,2.08
2023-05-24T12:44:35.485Z,2.10
2023-05-24T12:47:04.594Z,2.15
2023-05-24T12:49:32.198Z,2.30
2023-05-24T12:51:59.449Z,2.65
2023-05-24T12:54:27.830Z,2.38
2023-05-24T12:56:57.015Z,2.30
2023-05-24T12:59:25.617Z,2.10
2023-05-24T13:01:52.796Z,2.60
2023-05-24T13:04:21.667Z,2.50
2023-05-24T13:06:49.356Z,2.60
2023-05-24T13:09:19.082Z,3.00
2023-05-24T13:11:46.901Z,2.75
2023-05-24T13:14:15.779Z,2.75
2023-05-24T13:16:42.937Z,2.42
2023-05-24T13:19:10.495Z,2.78
2023-05-24T13:21:38.150Z,2.58
2023-05-24T13:24:06.980Z,2.70
2023-05-24T13:26:37.540Z,2.58
2023-05-24T13:31:38.824Z,2.60
2023-05-24T13:34:10.484Z,2.65
2023-05-24T13:36:38.184Z,2.90
2023-05-24T13:39:15.638Z,3.25
2023-05-24T13:41:43.757Z,2.85
2023-05-24T13:44:11.339Z,2.55
2023-05-24T13:46:38.837Z,2.70
2023-05-24T13:49:09.383Z,2.70
2023-05-24T13:51:36.872Z,2.63
2023-05-24T13:54:07.060Z,2.65
2023-05-24T13:56:34.405Z,2.63
2023-05-24T13:59:02.831Z,2.80
2023-05-24T14:01:30.622Z,2.63
2023-05-24T14:03:57.755Z,2.70
2023-05-24T14:06:24.640Z,3.07
2023-05-24T14:08:52.296Z,2.60
2023-05-24T14:11:19.773Z,2.80
2023-05-24T14:16:17.954Z,2.75
2023-05-24T14:18:45.868Z,2.67
2023-05-24T14:21:12.649Z,2.75
2023-05-24T14:23:39.354Z,2.42
2023-05-24T14:26:06.111Z,2.72
2023-05-24T14:28:32.819Z,2.50
2023-05-24T14:30:59.551Z,2.80
2023-05-24T14:33:26.457Z,2.72
2023-05-24T14:35:53.314Z,2.50
2023-05-24T14:38:20.360Z,2.47
2023-05-24T14:40:48.429Z,2.83
2023-05-24T14:43:15.566Z,2.90
2023-05-24T14:45:43.105Z,3.13
2023-05-24T14:48:11.662Z,2.53
2023-05-24T14:50:39.786Z,2.80
2023-05-24T14:53:09.839Z,2.77
2023-05-24T14:55:42.702Z,2.90
2023-05-24T14:58:12.903Z,2.83
2023-05-24T15:00:47.421Z,2.57
2023-05-24T15:03:20.068Z,2.60
2023-05-24T15:05:51.625Z,2.47
2023-05-24T15:08:21.101Z,2.50
2023-05-24T15:10:50.200Z,2.50
2023-05-24T15:13:17.919Z,2.55
2023-05-24T15:15:44.996Z,2.42
2023-05-24T15:18:12.316Z,2.45
2023-05-24T15:20:42.960Z,2.50
2023-05-24T15:23:14.412Z,2.63
2023-05-24T15:25:43.359Z,2.55
2023-05-24T15:28:13.196Z,3.10
2023-05-24T15:30:44.558Z,2.70
2023-05-24T15:33:13.322Z,2.72
2023-05-24T15:35:42.082Z,2.50
2023-05-24T15:38:09.900Z,2.50
2023-05-24T15:40:39.252Z,2.90
2023-05-24T15:43:09.421Z,2.35
2023-05-24T15:45:37.208Z,2.23
2023-05-24T15:48:04.994Z,2.67
2023-05-24T15:50:57.421Z,2.40
2023-05-24T15:53:24.082Z,2.67
2023-05-24T15:55:52.491Z,2.42
2023-05-24T15:58:21.605Z,2.17
2023-05-24T16:00:53.052Z,2.50
2023-05-24T16:03:20.460Z,2.40
2023-05-24T16:05:51.000Z,2.90
2023-05-24T16:08:18.784Z,2.53
2023-05-24T16:10:46.795Z,2.78
2023-05-24T16:13:15.144Z,2.67
2023-05-24T16:15:42.948Z,2.78
2023-05-24T16:18:10.222Z,2.73
2023-05-24T16:20:38.420Z,2.60
2023-05-24T16:23:06.550Z,2.47
2023-05-24T16:25:38.333Z,2.70
2023-05-24T16:28:06.308Z,2.45
2023-05-24T16:30:34.708Z,2.38
2023-05-24T16:33:02.554Z,2.65
2023-05-24T16:35:30.060Z,2.40
2023-05-24T16:37:58.682Z,2.50
2023-05-24T16:40:26.469Z,2.40
2023-05-24T16:42:55.230Z,2.53
2023-05-24T16:45:22.832Z,2.80
2023-05-24T16:47:50.614Z,2.60
2023-05-24T16:50:18.806Z,2.30
2023-05-24T16:52:46.868Z,2.33
2023-05-24T16:55:16.607Z,2.53
2023-05-24T16:57:44.838Z,3.05
2023-05-24T17:00:12.968Z,4.35
2023-05-24T17:02:40.577Z,2.70
2023-05-24T17:05:08.817Z,2.70
2023-05-24T17:07:36.202Z,2.33
2023-05-24T17:10:03.798Z,3.45
2023-05-24T17:12:31.656Z,3.58
2023-05-24T17:14:59.533Z,3.65
2023-05-24T17:17:27.290Z,3.60
2023-05-24T17:19:55.009Z,3.77
2023-05-24T17:22:22.459Z,5.23
2023-05-24T17:24:50.002Z,3.80
2023-05-24T17:27:21.928Z,2.78
2023-05-24T17:29:50.561Z,3.20
2023-05-24T17:32:18.327Z,2.60
2023-05-24T17:34:46.938Z,3.10
2023-05-24T17:37:16.036Z,2.53
2023-05-24T17:39:46.523Z,2.55
2023-05-24T17:42:16.351Z,2.65
2023-05-24T17:44:46.088Z,2.37
2023-05-24T17:47:19.106Z,2.60
2023-05-24T17:49:48.854Z,2.70
2023-05-24T17:52:16.880Z,2.58
2023-05-24T17:54:46.076Z,2.30
2023-05-24T17:57:13.605Z,2.20
2023-05-24T17:59:41.797Z,2.65
2023-05-24T18:02:11.354Z,2.47
2023-05-24T18:04:39.656Z,2.58
2023-05-24T18:07:07.428Z,2.50
2023-05-24T18:09:35.142Z,2.35
2023-05-24T18:12:02.670Z,2.30
2023-05-24T18:14:32.619Z,2.38
2023-05-24T18:17:00.468Z,2.42
2023-05-24T18:19:28.141Z,2.35
2023-05-24T18:21:58.514Z,2.42
2023-05-24T18:24:26.197Z,2.33
2023-05-24T18:26:53.995Z,2.53
2023-05-24T18:29:21.685Z,2.55
2023-05-24T18:31:49.591Z,2.30
2023-05-24T18:34:17.304Z,2.13
2023-05-24T18:36:45.570Z,2.45
2023-05-24T18:39:13.166Z,2.05
2023-05-24T18:41:40.318Z,2.20
2023-05-24T18:44:08.448Z,2.55
2023-05-24T18:46:41.762Z,2.35
2023-05-24T18:49:13.333Z,2.65
2023-05-24T18:51:40.404Z,2.00
2023-05-24T18:54:07.927Z,2.30
2023-05-24T18:56:35.771Z,2.53
2023-05-24T18:59:04.402Z,2.53
2023-05-24T19:01:32.419Z,2.27
2023-05-24T19:04:01.432Z,2.33
2023-05-24T19:06:30.183Z,2.33
2023-05-24T19:08:58.792Z,2.30
2023-05-24T19:11:28.150Z,2.55
2023-05-24T19:13:56.027Z,2.40
2023-05-24T19:16:24.654Z,2.30
2023-05-24T19:18:52.649Z,2.83
2023-05-24T19:21:21.002Z,2.50
2023-05-24T19:23:50.820Z,2.38
2023-05-24T19:26:19.020Z,2.50
2023-05-24T19:28:54.362Z,2.25
2023-05-24T19:31:24.954Z,2.08
2023-05-24T19:34:00.692Z,2.72
2023-05-24T19:36:31.236Z,2.47
2023-05-24T19:38:58.797Z,2.47
2023-05-24T19:41:27.792Z,2.17
2023-05-24T19:43:59.407Z,1.85
2023-05-24T19:46:29.831Z,2.22
2023-05-24T19:48:57.707Z,2.05
2023-05-24T19:51:26.696Z,2.55
2023-05-24T19:53:54.722Z,2.30
2023-05-24T19:56:25.621Z,2.65
2023-05-24T19:58:53.825Z,2.00
2023-05-24T20:01:24.887Z,1.90
2023-05-24T20:03:52.949Z,2.05
2023-05-24T20:06:20.694Z,2.15
2023-05-24T20:08:48.645Z,2.28
2023-05-24T20:13:44.903Z,2.28
2023-05-24T20:16:13.388Z,2.50
2023-05-24T20:18:41.211Z,2.65
2023-05-24T20:21:08.950Z,2.40
2023-05-24T20:23:36.156Z,2.67
2023-05-24T20:26:03.932Z,2.63
2023-05-24T20:28:32.250Z,3.00
2023-05-24T20:31:00.183Z,3.00
2023-05-24T20:33:29.803Z,2.70
2023-05-24T20:35:58.859Z,2.47
2023-05-24T20:38:26.396Z,2.50
2023-05-24T20:40:53.952Z,3.10
2023-05-24T20:43:23.952Z,2.80
2023-05-24T20:45:52.185Z,2.90
2023-05-24T20:48:21.721Z,3.28
2023-05-24T20:50:49.945Z,3.58
2023-05-24T20:53:19.504Z,3.03
2023-05-24T20:55:47.555Z,3.28
2023-05-24T20:58:17.744Z,3.90
2023-05-24T21:00:48.463Z,3.22
2023-05-24T21:03:16.309Z,3.38
2023-05-24T21:05:45.528Z,3.55
2023-05-24T21:08:15.051Z,3.53
2023-05-24T21:10:42.500Z,3.60
2023-05-24T21:13:11.103Z,3.80
2023-05-24T21:15:39.207Z,3.55
2023-05-24T21:18:06.961Z,3.55
2023-05-24T21:20:35.260Z,3.08
2023-05-24T21:23:04.469Z,4.55
2023-05-24T21:25:33.059Z,3.47
2023-05-24T21:28:00.916Z,4.20
2023-05-24T21:30:30.921Z,4.93
2023-05-24T21:32:59.201Z,4.97
2023-05-24T21:35:28.055Z,3.85
2023-05-24T21:37:59.217Z,4.60
2023-05-24T21:40:26.907Z,4.15
2023-05-24T21:42:55.151Z,4.72
2023-05-24T21:45:23.900Z,3.85
2023-05-24T21:47:51.995Z,4.00
2023-05-24T21:50:24.239Z,4.18
2023-05-24T21:52:51.607Z,3.85
2023-05-24T21:55:18.815Z,4.35
2023-05-24T21:57:46.383Z,4.43
2023-05-24T22:00:17.658Z,3.60
2023-05-24T22:02:45.316Z,3.85
2023-05-24T22:05:13.442Z,3.40
2023-05-24T22:07:41.312Z,3.92
2023-05-24T22:10:13.474Z,3.88
2023-05-24T22:12:40.690Z,4.03
2023-05-24T22:15:08.974Z,4.15
2023-05-24T22:17:37.849Z,3.70
2023-05-24T22:20:06.729Z,4.30
2023-05-24T22:22:33.992Z,3.78
2023-05-24T22:25:02.283Z,4.88
2023-05-24T22:27:29.843Z,4.80
2023-05-24T22:29:56.715Z,5.38
2023-05-24T22:32:23.864Z,5.00
2023-05-24T22:34:51.232Z,5.60
2023-05-24T22:37:21.185Z,5.32
2023-05-24T22:39:48.006Z,5.90
2023-05-24T22:42:15.849Z,5.25
2023-05-24T22:44:42.767Z,4.40
2023-05-24T22:47:14.245Z,5.13
2023-05-24T22:49:41.615Z,5.18
2023-05-24T22:52:09.990Z,6.28
2023-05-24T22:54:37.048Z,5.50
2023-05-24T22:57:04.327Z,5.22
2023-05-24T22:59:32.678Z,6.60
2023-05-24T23:02:07.476Z,6.63
2023-05-24T23:04:37.867Z,6.53
2023-05-24T23:07:04.976Z,6.32
2023-05-24T23:09:34.719Z,5.88
2023-05-24T23:12:07.544Z,6.55
2023-05-24T23:14:39.493Z,6.15
2023-05-24T23:17:15.981Z,6.90
2023-05-24T23:19:43.126Z,6.45
2023-05-24T23:22:11.892Z,6.60
2023-05-24T23:24:39.610Z,6.60
2023-05-24T23:27:06.856Z,5.38
2023-05-24T23:29:33.818Z,6.30
2023-05-24T23:32:01.243Z,6.53
2023-05-24T23:34:28.208Z,6.03
2023-05-24T23:36:55.029Z,6.13
2023-05-24T23:39:21.782Z,6.10
2023-05-24T23:41:48.494Z,6.57
2023-05-24T23:44:16.070Z,6.43
2023-05-24T23:46:42.995Z,7.30
2023-05-24T23:49:09.704Z,6.65
2023-05-24T23:51:36.627Z,6.50
2023-05-24T23:54:03.449Z,7.07
2023-05-24T23:56:30.196Z,6.47
2023-05-24T23:58:57.185Z,6.90
